Time;durP1;ratioP1;P1;durP2;ratioP2;P2;SDS_P1;SDS_P2;PMS_P1;PMS_P2;Temp;Humidity;BMP_temperature;BMP_pressure;BME280_temperature;BME280_humidity;BME280_pressure;Samples;Min_cycle;Max_cycle;Signal;HPM_P1;HPM_P2
2021/11/25 00:01:41;;;;;;;11.57;6.63;;;;;;;8.32;49.36;94373.16;4987226;28;20478;-75
2021/11/25 00:04:07;;;;;;;17.33;7.65;;;;;;;8.36;49.15;94384.00;4988266;28;20038;-75
2021/11/25 00:06:32;;;;;;;12.27;8.68;;;;;;;8.45;49.24;94387.59;4981429;28;20030;-75
2021/11/25 00:08:58;;;;;;;15.40;8.18;;;;;;;8.29;49.05;94379.03;4985069;28;20076;-75
2021/11/25 00:11:25;;;;;;;15.60;8.95;;;;;;;8.03;48.75;94332.72;4989066;28;20729;-76
2021/11/25 00:13:51;;;;;;;16.90;9.25;;;;;;;8.35;49.10;94377.13;4987267;28;20075;-75
2021/11/25 00:16:17;;;;;;;19.42;9.15;;;;;;;8.30;48.63;94370.03;4984278;28;20560;-75
2021/11/25 00:18:42;;;;;;;15.60;9.90;;;;;;;8.44;48.82;94386.78;4989405;28;20319;-74
2021/11/25 00:21:09;;;;;;;17.85;10.27;;;;;;;8.53;48.73;94395.69;4989546;28;20033;-75
2021/11/25 00:23:35;;;;;;;16.33;9.32;;;;;;;8.46;48.74;94389.16;4985346;28;20121;-75
2021/11/25 00:26:01;;;;;;;17.08;9.45;;;;;;;8.58;48.42;94386.88;4991017;28;20915;-75
2021/11/25 00:28:26;;;;;;;13.52;8.40;;;;;;;8.37;48.47;94365.16;4978633;28;20489;-75
2021/11/25 00:30:52;;;;;;;16.80;9.40;;;;;;;8.38;48.84;94366.72;4981502;28;20045;-75
2021/11/25 00:33:17;;;;;;;17.35;9.32;;;;;;;8.43;48.60;94364.00;4986853;28;20537;-75
2021/11/25 00:35:43;;;;;;;11.15;7.70;;;;;;;7.98;48.35;94343.38;4991018;28;20600;-75
2021/11/25 00:38:08;;;;;;;10.00;7.65;;;;;;;8.15;48.00;94373.66;4983851;28;20026;-75
2021/11/25 00:40:34;;;;;;;14.43;8.70;;;;;;;8.29;48.46;94373.75;4984888;28;20111;-75
2021/11/25 00:42:59;;;;;;;13.93;7.78;;;;;;;7.85;48.45;94379.28;4987599;28;20038;-75
2021/11/25 00:45:25;;;;;;;12.73;8.38;;;;;;;8.05;48.47;94386.22;4988620;28;20091;-75
2021/11/25 00:47:50;;;;;;;15.13;8.43;;;;;;;8.31;48.20;94387.50;4982548;28;20045;-75
2021/11/25 00:50:20;;;;;;;14.15;8.40;;;;;;;8.31;47.72;94382.22;4978272;28;20099;-77
2021/11/25 00:52:46;;;;;;;13.55;7.10;;;;;;;8.33;48.00;94390.66;4983926;28;21191;-75
2021/11/25 00:55:12;;;;;;;14.85;8.07;;;;;;;8.06;48.61;94346.22;5001071;28;20145;-75
2021/11/25 00:57:38;;;;;;;11.75;8.48;;;;;;;8.17;48.92;94377.88;4981853;28;20574;-75
2021/11/25 01:00:07;;;;;;;12.05;7.93;;;;;;;8.17;49.11;94375.22;4981992;28;20038;-77
2021/11/25 01:02:32;;;;;;;13.68;7.03;;;;;;;8.14;48.92;94368.63;5002122;28;20061;-76
2021/11/25 01:04:58;;;;;;;15.82;8.63;;;;;;;8.11;49.36;94372.66;4984925;28;20076;-75
2021/11/25 01:07:23;;;;;;;12.50;7.25;;;;;;;7.89;49.19;94326.53;4977914;28;20550;-75
2021/11/25 01:09:48;;;;;;;14.32;8.02;;;;;;;8.16;49.38;94363.84;4982627;28;20034;-77
2021/11/25 01:12:15;;;;;;;12.38;7.95;;;;;;;8.02;49.37;94342.53;4989107;28;20169;-75
2021/11/25 01:14:41;;;;;;;13.18;9.23;;;;;;;8.10;49.62;94351.72;4985452;28;20076;-75
2021/11/25 01:17:07;;;;;;;14.07;8.85;;;;;;;7.84;49.91;94345.13;4989783;28;20611;-75
2021/11/25 01:19:33;;;;;;;13.23;7.50;;;;;;;8.09;50.12;94358.09;4983122;28;20654;-75
2021/11/25 01:21:58;;;;;;;14.13;8.90;;;;;;;8.10;50.09;94352.53;4987829;28;20060;-76
2021/11/25 01:24:24;;;;;;;20.15;10.38;;;;;;;8.12;49.98;94354.88;4987638;28;20058;-76
2021/11/25 01:26:51;;;;;;;15.90;9.30;;;;;;;8.05;49.68;94338.53;4979289;28;20026;-76
2021/11/25 01:29:17;;;;;;;16.65;10.63;;;;;;;8.19;49.83;94363.28;4988026;28;20026;-75
2021/11/25 01:31:42;;;;;;;14.48;8.95;;;;;;;8.18;49.81;94348.44;4981220;28;20519;-76
2021/11/25 01:34:07;;;;;;;13.93;9.05;;;;;;;8.02;49.81;94324.00;4979836;28;20046;-75
2021/11/25 01:36:34;;;;;;;16.50;9.30;;;;;;;8.21;49.80;94355.84;4985206;28;20045;-77
2021/11/25 01:38:59;;;;;;;14.40;9.15;;;;;;;7.91;49.70;94319.13;4992045;28;20046;-76
2021/11/25 01:41:25;;;;;;;17.88;9.55;;;;;;;8.05;49.82;94338.53;4977306;28;20124;-76
2021/11/25 01:43:50;;;;;;;18.90;10.32;;;;;;;8.08;49.50;94337.97;4983799;28;20039;-75
2021/11/25 01:46:17;;;;;;;19.73;10.38;;;;;;;8.00;49.38;94325.34;4987020;28;20041;-75
2021/11/25 01:48:44;;;;;;;21.25;11.18;;;;;;;8.16;49.08;94355.91;4981169;28;20062;-75
2021/11/25 01:51:10;;;;;;;21.95;11.20;;;;;;;8.07;49.32;94350.41;4980435;28;20065;-75
2021/11/25 01:53:36;;;;;;;17.52;10.27;;;;;;;8.28;47.96;94350.16;4990084;28;20102;-75
2021/11/25 01:56:04;;;;;;;18.50;10.82;;;;;;;8.01;48.69;94340.19;4976363;28;20096;-75
2021/11/25 01:58:29;;;;;;;22.13;9.35;;;;;;;8.05;48.52;94333.25;5004104;28;20156;-75
2021/11/25 02:00:57;;;;;;;17.45;9.93;;;;;;;8.09;48.01;94339.53;4983425;28;20671;-77
2021/11/25 02:03:23;;;;;;;15.27;9.25;;;;;;;8.00;48.38;94350.00;4989090;28;20290;-77
2021/11/25 02:05:49;;;;;;;14.93;8.27;;;;;;;7.73;49.27;94341.81;4986491;28;20527;-75
2021/11/25 02:08:15;;;;;;;13.90;8.43;;;;;;;7.38;49.82;94300.63;4992896;28;20311;-76
2021/11/25 02:10:43;;;;;;;18.60;8.65;;;;;;;7.62;50.10;94354.38;4984249;28;20053;-76
2021/11/25 02:13:08;;;;;;;14.02;8.18;;;;;;;7.76;49.43;94345.78;4987333;28;20136;-76
2021/11/25 02:15:35;;;;;;;14.60;9.18;;;;;;;7.30;50.07;94282.69;4989111;28;20148;-75
2021/11/25 02:18:05;;;;;;;15.98;8.93;;;;;;;7.55;50.04;94327.44;4988467;28;20030;-76
2021/11/25 02:20:39;;;;;;;14.65;8.45;;;;;;;7.01;50.89;94342.75;4985823;28;20563;-76
2021/11/25 02:23:07;;;;;;;20.10;10.43;;;;;;;7.23;51.12;94341.25;4993401;28;20388;-76
2021/11/25 02:25:32;;;;;;;17.02;9.55;;;;;;;7.28;50.86;94316.59;4992645;28;20049;-76
2021/11/25 02:27:58;;;;;;;14.25;9.60;;;;;;;7.25;50.89;94302.06;4991217;28;20401;-74
2021/11/25 02:30:24;;;;;;;15.73;9.10;;;;;;;7.47;50.83;94335.19;4985432;28;20505;-75
2021/11/25 02:32:50;;;;;;;14.48;9.50;;;;;;;7.55;50.61;94327.44;4989839;28;20030;-74
2021/11/25 02:35:23;;;;;;;17.13;9.93;;;;;;;7.57;50.64;94325.31;4982823;28;20406;-74
2021/11/25 02:37:50;;;;;;;14.77;8.70;;;;;;;7.56;51.00;94333.50;4988037;28;20042;-75
2021/11/25 02:40:25;;;;;;;18.63;9.73;;;;;;;7.52;50.83;94322.72;4986797;28;20030;-74
2021/11/25 02:42:52;;;;;;;;;;;;;;;7.41;50.92;94336.31;4989289;28;20100;-75
2021/11/25 02:45:19;;;;;;;14.52;9.05;;;;;;;7.46;51.04;94334.41;4991589;28;20146;-75
2021/11/25 02:47:44;;;;;;;16.75;10.25;;;;;;;7.54;51.16;94325.84;4990844;28;20034;-74
2021/11/25 02:50:10;;;;;;;17.48;10.40;;;;;;;7.64;50.89;94320.44;4995430;28;20042;-75
2021/11/25 02:52:40;;;;;;;17.30;9.85;;;;;;;7.64;50.99;94328.38;4991836;28;20061;-74
2021/11/25 02:55:06;;;;;;;15.43;9.00;;;;;;;7.47;51.04;94287.56;4988198;28;20227;-75
2021/11/25 02:57:36;;;;;;;16.27;9.30;;;;;;;7.62;50.57;94319.97;4991437;28;20328;-75
2021/11/25 03:00:06;;;;;;;16.08;9.32;;;;;;;7.13;50.66;94327.31;4986814;28;20045;-74
2021/11/25 03:02:31;;;;;;;14.35;8.18;;;;;;;7.14;50.91;94303.22;4987114;28;20033;-75
2021/11/25 03:04:57;;;;;;;12.95;8.68;;;;;;;7.33;50.87;94292.75;4988976;28;20034;-75
2021/11/25 03:07:22;;;;;;;12.80;8.90;;;;;;;7.57;50.51;94320.00;4987747;28;20602;-75
2021/11/25 03:09:47;;;;;;;13.95;8.18;;;;;;;7.29;50.15;94283.75;4993015;28;20069;-75
2021/11/25 03:12:13;;;;;;;18.70;9.73;;;;;;;7.15;50.41;94278.34;4993401;28;20404;-76
2021/11/25 03:14:38;;;;;;;14.88;9.10;;;;;;;7.36;50.41;94297.47;4990720;28;20030;-75
2021/11/25 03:17:04;;;;;;;17.50;9.10;;;;;;;7.54;50.14;94320.56;4983356;28;20042;-75
2021/11/25 03:19:29;;;;;;;12.50;8.90;;;;;;;7.39;50.08;94299.53;4993589;28;20034;-75
2021/11/25 03:21:55;;;;;;;17.17;8.95;;;;;;;7.62;49.95;94317.31;4989770;28;20084;-75
2021/11/25 03:24:20;;;;;;;13.75;8.75;;;;;;;7.64;49.83;94315.16;4991629;28;20038;-75
2021/11/25 03:26:46;;;;;;;14.82;9.23;;;;;;;7.36;50.01;94265.72;4986860;28;20312;-75
2021/11/25 03:29:11;;;;;;;14.20;8.23;;;;;;;7.73;49.88;94308.19;4989676;28;20034;-75
2021/11/25 03:31:36;;;;;;;12.38;8.63;;;;;;;7.77;49.82;94302.34;4991562;28;20504;-75
2021/11/25 03:34:03;;;;;;;13.00;7.50;;;;;;;7.63;49.91;94296.91;4989829;28;20049;-75
2021/11/25 03:36:29;;;;;;;14.77;7.43;;;;;;;7.73;50.04;94300.25;4986658;28;20048;-75
2021/11/25 03:38:55;;;;;;;14.95;8.50;;;;;;;7.66;50.11;94293.69;4994879;28;20009;-75
2021/11/25 03:41:22;;;;;;;18.50;8.02;;;;;;;7.75;49.78;94304.47;4975354;28;20362;-75
2021/11/25 03:43:47;;;;;;;11.55;7.63;;;;;;;7.61;49.86;94278.66;4986940;28;20156;-75
2021/11/25 03:46:13;;;;;;;13.90;8.68;;;;;;;7.80;49.80;94297.25;5001258;28;20103;-75
2021/11/25 03:48:38;;;;;;;11.68;6.75;;;;;;;7.51;49.79;94284.06;4991641;28;20515;-75
2021/11/25 03:51:08;;;;;;;12.18;7.40;;;;;;;7.74;50.03;94298.38;4993654;28;20089;-75
2021/11/25 03:53:35;;;;;;;12.07;7.25;;;;;;;7.70;49.83;94282.25;5004693;28;20025;-74
2021/11/25 03:56:01;;;;;;;12.13;6.63;;;;;;;7.68;49.82;94273.78;4992046;28;20045;-75
2021/11/25 03:58:27;;;;;;;13.27;7.57;;;;;;;7.64;49.85;94275.44;4986644;28;21657;-75
2021/11/25 04:00:53;;;;;;;14.10;8.13;;;;;;;7.59;49.94;94277.34;4989723;28;20037;-75
2021/11/25 04:03:19;;;;;;;13.85;8.57;;;;;;;7.61;49.97;94269.94;4987632;28;20038;-74
2021/11/25 04:05:45;;;;;;;13.93;7.82;;;;;;;7.79;49.69;94294.88;4988245;28;20069;-76
2021/11/25 04:08:10;;;;;;;13.75;8.40;;;;;;;7.56;49.79;94281.38;4982968;28;20045;-75
2021/11/25 04:10:36;;;;;;;14.43;8.02;;;;;;;7.54;50.09;94270.25;4988336;28;20034;-76
2021/11/25 04:13:02;;;;;;;13.60;7.85;;;;;;;7.73;49.87;94280.16;4988346;28;20093;-76
2021/11/25 04:15:27;;;;;;;13.15;7.55;;;;;;;7.36;49.96;94241.91;4985698;28;20041;-76
2021/11/25 04:17:53;;;;;;;17.02;9.05;;;;;;;7.71;50.13;94283.06;4988474;28;20068;-75
2021/11/25 04:20:18;;;;;;;14.05;8.00;;;;;;;7.81;50.31;94276.88;4985288;28;20576;-75
2021/11/25 04:22:44;;;;;;;13.57;7.78;;;;;;;7.65;50.29;94261.13;4982674;28;20124;-75
2021/11/25 04:25:11;;;;;;;12.55;7.88;;;;;;;7.77;50.17;94273.22;4982742;28;20071;-75
2021/11/25 04:27:36;;;;;;;11.10;6.95;;;;;;;7.23;50.54;94261.09;4992487;28;20066;-75
2021/11/25 04:30:12;;;;;;;12.80;7.82;;;;;;;7.51;50.23;94273.47;4988358;28;20519;-75
2021/11/25 04:38:10;;;;;;;15.80;8.00;;;;;;;6.28;52.81;94261.66;4992421;28;20038;-74
2021/11/25 04:40:58;;;;;;;14.55;7.70;;;;;;;5.14;56.04;94279.28;4981204;28;20033;-74
2021/11/25 04:43:24;;;;;;;12.77;7.85;;;;;;;5.05;56.86;94270.34;4984341;28;20570;-77
2021/11/25 04:45:52;;;;;;;17.50;9.13;;;;;;;5.33;56.09;94286.66;4984268;28;20493;-75
2021/11/25 04:48:20;;;;;;;16.98;8.68;;;;;;;5.51;55.27;94262.31;4990565;28;20053;-75
2021/11/25 04:50:46;;;;;;;16.38;8.82;;;;;;;5.94;54.23;94256.28;4993562;28;20567;-75
2021/11/25 04:53:13;;;;;;;19.98;8.63;;;;;;;4.88;56.31;94280.41;4986080;28;20464;-75
2021/11/25 04:55:39;;;;;;;16.55;9.02;;;;;;;5.69;55.12;94272.25;4988849;28;20096;-74
2021/11/25 04:58:05;;;;;;;16.75;9.90;;;;;;;6.10;54.11;94279.97;4974872;28;20077;-74
2021/11/25 05:00:31;;;;;;;17.35;9.10;;;;;;;6.38;53.30;94281.91;4988886;28;20118;-74
2021/11/25 05:02:56;;;;;;;13.35;8.23;;;;;;;6.58;52.74;94287.06;4982173;28;20109;-74
2021/11/25 05:05:22;;;;;;;17.50;8.35;;;;;;;6.65;52.50;94278.81;4981028;28;20030;-75
2021/11/25 05:07:48;;;;;;;13.68;7.90;;;;;;;6.80;51.65;94278.69;4987744;28;20463;-75
2021/11/25 05:10:14;;;;;;;19.08;8.15;;;;;;;6.77;51.68;94290.59;4986659;28;20065;-75
2021/11/25 05:12:39;;;;;;;12.30;9.02;;;;;;;6.45;51.70;94231.41;4982259;28;20042;-75
2021/11/25 05:15:06;;;;;;;15.18;8.25;;;;;;;6.88;51.42;94283.38;4989075;28;20157;-75
2021/11/25 05:17:32;;;;;;;16.88;8.80;;;;;;;6.72;51.20;94261.56;4986788;28;20034;-74
2021/11/25 05:19:57;;;;;;;17.58;8.48;;;;;;;6.25;52.04;94282.56;4986587;28;20050;-75
2021/11/25 05:22:23;;;;;;;21.50;9.23;;;;;;;5.70;53.79;94280.97;4986196;28;20058;-74
2021/11/25 05:24:48;;;;;;;18.40;10.50;;;;;;;6.23;53.02;94274.09;4990953;28;20042;-74
2021/11/25 05:27:14;;;;;;;20.15;12.63;;;;;;;6.42;52.47;94261.81;4983858;28;20093;-75
2021/11/25 05:29:40;;;;;;;15.43;9.27;;;;;;;6.70;51.88;94271.63;4990369;28;20034;-74
2021/11/25 05:32:06;;;;;;;16.17;9.02;;;;;;;6.88;51.35;94285.25;4988546;28;20084;-75
2021/11/25 05:34:32;;;;;;;15.30;9.23;;;;;;;6.86;51.09;94288.94;4987252;28;20057;-75
2021/11/25 05:36:57;;;;;;;15.70;8.32;;;;;;;6.68;50.96;94265.84;4983394;28;20472;-75
2021/11/25 05:39:23;;;;;;;16.50;9.50;;;;;;;6.65;51.59;94282.22;4991133;28;20117;-75
2021/11/25 05:41:48;;;;;;;16.95;9.30;;;;;;;6.48;52.10;94262.56;4985893;28;20067;-75
2021/11/25 05:44:14;;;;;;;13.48;7.38;;;;;;;6.44;52.45;94286.13;4989302;28;20340;-74
2021/11/25 05:46:40;;;;;;;16.25;9.52;;;;;;;6.11;52.79;94286.84;4977693;28;20070;-75
2021/11/25 05:49:07;;;;;;;14.18;7.20;;;;;;;6.10;52.66;94295.81;4985873;28;20541;-75
2021/11/25 05:51:34;;;;;;;13.00;7.78;;;;;;;4.39;56.64;94293.34;4989660;28;20120;-76
2021/11/25 05:53:59;;;;;;;15.73;9.60;;;;;;;3.80;58.31;94269.25;4985392;28;20053;-75
2021/11/25 05:56:24;;;;;;;14.80;8.35;;;;;;;3.92;59.79;94292.66;5001020;28;20041;-75
2021/11/25 05:58:50;;;;;;;16.98;9.38;;;;;;;4.85;57.76;94290.66;4986035;28;20508;-75
2021/11/25 06:01:15;;;;;;;18.25;9.00;;;;;;;5.36;56.56;94291.38;4983168;28;20037;-75
2021/11/25 06:03:41;;;;;;;17.35;9.57;;;;;;;5.69;55.46;94285.44;4986140;28;20046;-74
2021/11/25 06:06:06;;;;;;;15.40;8.43;;;;;;;5.70;54.72;94276.47;4987554;28;20029;-75
2021/11/25 06:08:32;;;;;;;22.35;10.02;;;;;;;5.85;54.43;94273.75;4980736;28;20073;-75
2021/11/25 06:11:02;;;;;;;22.27;10.13;;;;;;;6.13;53.82;94295.25;4982764;28;20357;-74
2021/11/25 06:13:27;;;;;;;19.98;11.23;;;;;;;6.40;53.24;94307.03;4987436;28;20077;-75
2021/11/25 06:15:53;;;;;;;18.05;9.13;;;;;;;6.35;52.83;94295.69;4986511;28;20136;-74
2021/11/25 06:18:18;;;;;;;16.98;9.13;;;;;;;5.64;53.79;94280.19;5003533;28;20074;-75
2021/11/25 06:20:44;;;;;;;16.85;8.73;;;;;;;5.46;54.95;94307.97;4981988;28;20374;-75
2021/11/25 06:23:10;;;;;;;17.98;8.27;;;;;;;4.69;57.29;94309.16;4986718;28;20072;-75
2021/11/25 06:25:35;;;;;;;18.17;9.57;;;;;;;4.75;57.45;94307.28;4985152;28;20038;-75
2021/11/25 06:28:01;;;;;;;19.98;9.60;;;;;;;5.19;56.34;94290.91;4982873;28;20143;-77
2021/11/25 06:30:26;;;;;;;14.77;8.88;;;;;;;5.22;56.92;94312.25;4984908;28;20049;-75
2021/11/25 06:32:52;;;;;;;13.60;8.18;;;;;;;5.14;56.93;94305.66;4988106;28;20087;-75
2021/11/25 06:35:20;;;;;;;15.85;8.75;;;;;;;5.72;55.59;94290.19;4984604;28;20014;-75
2021/11/25 06:37:49;;;;;;;16.15;9.13;;;;;;;5.43;55.34;94297.16;4985548;28;20038;-75
2021/11/25 06:40:17;;;;;;;13.50;7.70;;;;;;;5.45;55.89;94305.59;4982890;28;20038;-74
2021/11/25 06:42:43;;;;;;;12.32;7.38;;;;;;;5.27;56.60;94303.53;4984200;28;20133;-75
2021/11/25 06:45:09;;;;;;;13.18;8.27;;;;;;;4.31;58.82;94316.75;4987964;28;20720;-76
2021/11/25 06:47:36;;;;;;;16.77;8.68;;;;;;;3.93;60.00;94294.25;4982116;28;20430;-74
2021/11/25 06:50:02;;;;;;;18.27;9.88;;;;;;;3.30;61.48;94254.06;4989715;28;20046;-75
2021/11/25 06:52:27;;;;;;;15.95;8.70;;;;;;;4.10;60.47;94311.44;4988480;28;20143;-75
2021/11/25 06:54:52;;;;;;;17.95;8.32;;;;;;;3.72;62.24;94294.19;4991592;28;20523;-75
2021/11/25 06:57:18;;;;;;;16.00;8.40;;;;;;;3.84;61.26;94286.09;4990769;28;20451;-75
2021/11/25 06:59:44;;;;;;;12.13;6.97;;;;;;;3.80;62.47;94290.28;4991839;28;20034;-76
2021/11/25 07:02:09;;;;;;;14.88;8.27;;;;;;;3.76;63.11;94311.06;4988499;28;20376;-74
2021/11/25 07:04:34;;;;;;;12.85;6.45;;;;;;;3.91;62.50;94297.16;4991069;28;20345;-74
2021/11/25 07:07:03;;;;;;;14.73;8.05;;;;;;;3.57;63.54;94317.06;4988890;28;20799;-75
2021/11/25 07:09:28;;;;;;;16.60;7.25;;;;;;;3.82;63.58;94303.97;4992252;28;20050;-75
2021/11/25 07:11:54;;;;;;;14.27;9.30;;;;;;;3.17;64.96;94301.88;4990078;28;20030;-76
2021/11/25 07:14:19;;;;;;;14.35;6.50;;;;;;;3.44;64.33;94281.47;4990021;28;20030;-74
2021/11/25 07:16:45;;;;;;;14.63;8.02;;;;;;;3.40;64.74;94312.75;4989670;28;20073;-75
2021/11/25 07:19:10;;;;;;;16.63;7.97;;;;;;;3.28;65.38;94290.38;4987827;28;20104;-74
2021/11/25 07:21:35;;;;;;;12.60;7.57;;;;;;;3.20;66.29;94312.66;4990886;28;20433;-74
2021/11/25 07:24:01;;;;;;;14.80;6.93;;;;;;;3.14;65.41;94276.06;4988362;28;20026;-75
2021/11/25 07:26:26;;;;;;;16.35;8.07;;;;;;;2.63;67.62;94293.38;4992357;28;20560;-74
2021/11/25 07:28:55;;;;;;;13.18;7.20;;;;;;;2.55;69.17;94299.84;4989805;28;20145;-74
2021/11/25 07:31:21;;;;;;;16.55;7.88;;;;;;;2.73;68.34;94296.06;4989367;28;20388;-75
2021/11/25 07:33:46;;;;;;;15.27;8.10;;;;;;;2.57;68.54;94312.75;4989034;28;21060;-74
2021/11/25 07:36:13;;;;;;;14.13;6.70;;;;;;;2.69;68.77;94287.91;4992862;28;20129;-74
2021/11/25 07:38:39;;;;;;;13.48;7.47;;;;;;;3.16;67.54;94300.28;4995332;28;20037;-74
2021/11/25 07:41:06;;;;;;;12.20;7.05;;;;;;;3.08;70.50;94296.31;4991978;28;20041;-75
2021/11/25 07:43:32;;;;;;;12.55;6.88;;;;;;;2.83;67.53;94281.16;4989828;28;20042;-74
2021/11/25 07:45:58;;;;;;;10.40;5.63;;;;;;;3.06;67.40;94301.00;4992624;28;20634;-75
2021/11/25 07:48:23;;;;;;;12.07;6.43;;;;;;;2.97;67.13;94302.53;4986094;28;20050;-75
2021/11/25 07:50:49;;;;;;;14.45;6.45;;;;;;;3.02;67.25;94284.16;5007631;28;20184;-74
2021/11/25 07:53:14;;;;;;;9.80;6.22;;;;;;;3.00;66.92;94275.75;4987840;28;20026;-75
2021/11/25 07:55:39;;;;;;;9.27;6.20;;;;;;;2.77;67.16;94276.13;4982137;28;20070;-75
2021/11/25 07:58:05;;;;;;;7.72;5.40;;;;;;;2.82;68.37;94279.59;5004704;28;20115;-75
2021/11/25 08:00:31;;;;;;;9.65;6.10;;;;;;;2.70;68.02;94244.81;4989698;28;20455;-75
2021/11/25 08:02:57;;;;;;;12.52;5.97;;;;;;;3.19;67.33;94300.53;4988176;28;20021;-75
2021/11/25 08:05:26;;;;;;;9.15;4.93;;;;;;;3.47;66.37;94291.50;4991020;28;20639;-76
2021/11/25 08:07:56;;;;;;;15.82;7.40;;;;;;;3.57;65.99;94261.81;4994558;28;20045;-76
2021/11/25 08:10:23;;;;;;;12.15;6.10;;;;;;;3.84;64.27;94286.88;4989228;28;20133;-76
2021/11/25 08:12:49;;;;;;;13.75;6.95;;;;;;;3.55;64.12;94277.06;4989807;28;20124;-75
2021/11/25 08:15:15;;;;;;;12.30;6.78;;;;;;;3.39;65.14;94274.34;4988283;28;20066;-75
2021/11/25 08:17:41;;;;;;;10.13;6.15;;;;;;;3.14;65.44;94271.59;4992115;28;20104;-74
2021/11/25 08:20:09;;;;;;;7.53;5.53;;;;;;;3.05;66.16;94257.38;4977057;28;20035;-73
2021/11/25 08:22:34;;;;;;;15.63;6.07;;;;;;;3.56;66.14;94284.69;4983211;28;20459;-74
2021/11/25 08:25:01;;;;;;;8.00;5.47;;;;;;;3.33;65.64;94243.81;4988616;28;20042;-76
2021/11/25 08:27:27;;;;;;;9.13;5.30;;;;;;;3.26;64.22;94247.75;4982990;28;20042;-75
2021/11/25 08:29:53;;;;;;;9.43;6.43;;;;;;;3.56;64.62;94268.13;4991949;28;20349;-74
2021/11/25 08:32:18;;;;;;;9.10;5.28;;;;;;;3.33;64.67;94270.13;4983434;28;20550;-75
2021/11/25 08:34:44;;;;;;;8.02;4.50;;;;;;;3.03;65.19;94243.72;4982655;28;20045;-74
2021/11/25 08:37:09;;;;;;;12.40;5.75;;;;;;;2.89;66.25;94239.97;4983286;28;20781;-75
2021/11/25 08:39:37;;;;;;;7.85;4.88;;;;;;;2.92;66.85;94258.63;4985820;28;20038;-74
2021/11/25 08:42:07;;;;;;;12.10;6.05;;;;;;;2.94;66.92;94251.25;4990766;28;20503;-74
2021/11/25 08:44:32;;;;;;;9.90;5.72;;;;;;;3.10;67.37;94256.59;4992838;28;20141;-73
2021/11/25 08:46:59;;;;;;;9.90;5.30;;;;;;;3.06;66.61;94216.13;4986000;28;20042;-75
2021/11/25 08:49:25;;;;;;;10.32;5.55;;;;;;;3.32;66.24;94221.25;4989290;28;20080;-76
2021/11/25 08:51:51;;;;;;;7.93;5.47;;;;;;;3.22;65.37;94215.94;4994082;28;20557;-75
2021/11/25 08:54:17;;;;;;;9.38;5.70;;;;;;;2.96;65.08;94183.50;4981554;28;20042;-74
2021/11/25 08:56:43;;;;;;;9.63;4.55;;;;;;;3.24;65.93;94240.13;4990382;28;20523;-75
2021/11/25 08:59:08;;;;;;;11.85;5.97;;;;;;;3.36;65.30;94226.75;4986441;28;20121;-75
2021/11/25 09:01:34;;;;;;;6.22;4.78;;;;;;;3.51;64.33;94218.13;4988803;28;20044;-75
2021/11/25 09:04:00;;;;;;;7.40;5.05;;;;;;;3.35;64.84;94223.34;4987501;28;20084;-75
2021/11/25 09:06:25;;;;;;;12.02;5.68;;;;;;;3.63;64.44;94234.47;4989387;28;20598;-75
2021/11/25 09:08:52;;;;;;;8.90;5.38;;;;;;;3.48;64.72;94242.34;4982789;28;20145;-75
2021/11/25 09:11:18;;;;;;;8.35;5.32;;;;;;;3.45;64.77;94219.16;4989352;28;20029;-75
2021/11/25 09:13:43;;;;;;;8.32;5.70;;;;;;;3.86;64.55;94214.78;4985685;28;20559;-75
2021/11/25 09:16:09;;;;;;;7.70;4.63;;;;;;;4.61;63.41;94206.91;4983849;28;20812;-75
2021/11/25 09:18:34;;;;;;;8.85;5.82;;;;;;;4.88;61.15;94222.44;4989440;28;20041;-76
2021/11/25 09:21:01;;;;;;;11.20;5.93;;;;;;;4.35;60.84;94204.59;4982558;28;20591;-76
2021/11/25 09:23:26;;;;;;;9.25;5.38;;;;;;;4.04;61.48;94203.75;4991347;28;20033;-76
2021/11/25 09:25:52;;;;;;;11.60;6.68;;;;;;;3.80;61.38;94195.56;4986239;28;20103;-75
2021/11/25 09:28:23;;;;;;;8.38;4.88;;;;;;;3.68;62.75;94203.69;4989814;28;20440;-76
2021/11/25 09:30:50;;;;;;;8.73;5.13;;;;;;;3.75;62.39;94219.25;4977877;28;20607;-75
2021/11/25 09:33:16;;;;;;;8.95;5.53;;;;;;;3.46;62.89;94152.38;4986021;28;20125;-75
2021/11/25 09:35:42;;;;;;;13.93;6.07;;;;;;;4.08;63.17;94208.22;4987245;28;20042;-75
2021/11/25 09:38:09;;;;;;;9.35;6.88;;;;;;;3.84;62.59;94183.47;4988408;28;20192;-76
2021/11/25 09:40:36;;;;;;;9.00;5.43;;;;;;;3.87;62.45;94192.69;4983770;28;20034;-75
2021/11/25 09:43:08;;;;;;;8.80;4.82;;;;;;;3.96;61.97;94181.38;4991555;28;20197;-75
2021/11/25 09:45:36;;;;;;;7.88;5.20;;;;;;;4.08;61.81;94191.66;4996861;28;20042;-76
2021/11/25 09:48:05;;;;;;;7.60;5.10;;;;;;;3.71;61.23;94152.44;4989751;28;20444;-76
2021/11/25 09:50:35;;;;;;;10.52;5.40;;;;;;;3.91;62.13;94212.16;5004458;28;20366;-76
2021/11/25 09:53:04;;;;;;;7.85;4.97;;;;;;;3.57;62.72;94211.84;4990493;28;20462;-75
2021/11/25 09:55:31;;;;;;;10.35;5.47;;;;;;;3.57;63.07;94193.44;4985700;28;20050;-75
2021/11/25 09:57:57;;;;;;;10.35;5.63;;;;;;;3.47;63.00;94185.53;4990718;28;20044;-76
2021/11/25 10:00:28;;;;;;;9.88;4.80;;;;;;;3.61;63.73;94202.38;4987967;28;20041;-75
2021/11/25 10:02:53;;;;;;;11.90;5.80;;;;;;;3.91;63.89;94197.19;4989911;28;20138;-76
2021/11/25 10:05:19;;;;;;;9.80;5.38;;;;;;;3.96;62.92;94184.03;5001751;28;20053;-76
2021/11/25 10:07:45;;;;;;;9.73;5.57;;;;;;;3.99;62.12;94204.53;4985908;28;20046;-75
2021/11/25 10:10:26;;;;;;;7.72;5.05;;;;;;;3.86;61.97;94178.75;4989988;28;20092;-75
2021/11/25 10:13:01;;;;;;;10.55;5.97;;;;;;;3.93;62.20;94200.31;4989945;28;20042;-76
2021/11/25 10:15:37;;;;;;;9.50;5.50;;;;;;;3.84;62.64;94201.88;4992588;28;20458;-74
2021/11/25 10:18:03;;;;;;;;;;;;;;;3.89;62.50;94194.00;4979956;28;20709;-74
2021/11/25 10:20:33;;;;;;;7.90;5.47;;;;;;;3.70;62.53;94177.94;4982600;28;19929;-74
2021/11/25 10:23:01;;;;;;;8.88;4.88;;;;;;;3.94;62.40;94180.06;4989752;28;20060;-75
2021/11/25 10:25:51;;;;;;;9.77;5.30;;;;;;;3.90;61.99;94179.00;4991267;28;20053;-75
2021/11/25 10:28:19;;;;;;;14.93;6.28;;;;;;;3.58;63.10;94155.53;4985872;28;20034;-75
2021/11/25 10:30:45;;;;;;;11.27;5.75;;;;;;;3.71;63.49;94170.84;4985988;28;20054;-75
2021/11/25 10:33:10;;;;;;;11.20;5.97;;;;;;;3.72;63.57;94151.38;4993497;28;20108;-75
2021/11/25 10:38:38;;;;;;;9.23;5.35;;;;;;;3.83;62.92;94158.22;4977908;28;20101;-74
2021/11/25 10:41:13;;;;;;;;;;;;;;;3.72;63.87;94172.44;4993712;28;20493;-75
2021/11/25 10:43:39;;;;;;;11.50;6.32;;;;;;;3.66;64.13;94168.19;4989009;28;20328;-74
2021/11/25 10:46:06;;;;;;;11.15;5.82;;;;;;;3.50;64.71;94140.28;4992619;28;20045;-75
2021/11/25 10:48:39;;;;;;;14.25;7.88;;;;;;;3.34;65.51;94147.34;4980523;28;20109;-75
2021/11/25 10:51:26;;;;;;;10.88;7.10;;;;;;;3.14;66.50;94150.72;4993569;28;20629;-74
2021/11/25 10:54:02;;;;;;;11.23;6.88;;;;;;;3.08;67.23;94150.97;4991897;28;20053;-74
2021/11/25 10:56:43;;;;;;;9.23;5.90;;;;;;;3.37;66.86;94149.47;4989107;28;20044;-76
2021/11/25 10:59:13;;;;;;;11.65;6.78;;;;;;;3.44;66.45;94141.31;4992378;28;20068;-77
2021/11/25 11:01:43;;;;;;;13.32;7.15;;;;;;;3.17;66.99;94129.19;4990639;28;20034;-75
2021/11/25 11:04:10;;;;;;;13.32;7.28;;;;;;;3.39;67.04;94144.72;4989604;28;20064;-75
2021/11/25 11:06:39;;;;;;;13.32;7.40;;;;;;;3.46;65.92;94131.34;4991643;28;20042;-75
2021/11/25 11:09:07;;;;;;;15.73;6.78;;;;;;;3.52;65.68;94130.31;4982372;28;21313;-75
2021/11/25 11:11:35;;;;;;;8.60;5.72;;;;;;;3.38;66.30;94137.88;4987536;28;20409;-74
2021/11/25 11:14:18;;;;;;;13.23;7.20;;;;;;;3.45;66.28;94135.00;4984004;28;20098;-76
2021/11/25 11:17:03;;;;;;;14.40;7.18;;;;;;;3.38;69.45;94116.84;4987294;28;20122;-75
2021/11/25 11:19:28;;;;;;;14.35;8.13;;;;;;;3.85;68.13;94103.50;4987845;28;20197;-75
2021/11/25 11:21:55;;;;;;;12.95;7.82;;;;;;;3.91;65.79;94114.81;4991172;28;20102;-75
2021/11/25 11:24:32;;;;;;;14.00;7.28;;;;;;;3.95;65.17;94123.75;4996890;28;20589;-74
2021/11/25 11:27:02;;;;;;;14.27;6.50;;;;;;;3.48;65.32;94118.72;4993528;28;20030;-75
2021/11/25 11:29:30;;;;;;;9.55;6.65;;;;;;;3.43;65.89;94089.81;4984953;28;20069;-75
2021/11/25 11:31:58;;;;;;;12.80;6.93;;;;;;;3.63;65.52;94095.84;4979451;28;20038;-75
2021/11/25 11:34:26;;;;;;;11.90;7.60;;;;;;;3.77;65.39;94111.91;4982469;28;20038;-75
2021/11/25 11:36:53;;;;;;;11.15;6.47;;;;;;;3.53;65.16;94090.56;4996867;28;20042;-75
2021/11/25 11:39:21;;;;;;;13.20;6.57;;;;;;;3.67;65.66;94111.91;4986224;28;20340;-75
2021/11/25 11:41:50;;;;;;;13.15;6.63;;;;;;;3.59;65.21;94076.38;4982476;28;20080;-75